createdAt,value
2023-02-03T00:00:31.867Z,100260.69
2023-02-03T00:02:58.900Z,100263.19
2023-02-03T00:05:26.071Z,100257.25
2023-02-03T00:07:53.179Z,100246.88
2023-02-03T00:10:22.841Z,100248.63
2023-02-03T00:12:52.858Z,100245.94
2023-02-03T00:15:20.308Z,100245.03
2023-02-03T00:17:47.143Z,100240.84
2023-02-03T00:20:13.986Z,100234.84
2023-02-03T00:22:40.942Z,100245.09
2023-02-03T00:25:07.981Z,100225.59
2023-02-03T00:27:34.837Z,100244.31
2023-02-03T00:30:01.723Z,100250.22
2023-02-03T00:32:28.734Z,100224.69
2023-02-03T00:34:55.588Z,100244.31
2023-02-03T00:37:23.191Z,100243.50
2023-02-03T00:39:50.289Z,100243.34
2023-02-03T00:42:17.164Z,100234.81
2023-02-03T00:44:44.002Z,100256.25
2023-02-03T00:47:10.979Z,100254.50
2023-02-03T00:49:37.862Z,100247.00
2023-02-03T00:52:05.287Z,100268.28
2023-02-03T00:54:33.714Z,100270.06
2023-02-03T00:57:00.857Z,100270.09
2023-02-03T00:59:27.742Z,100273.44
2023-02-03T01:01:54.653Z,100280.31
2023-02-03T01:04:21.544Z,100284.53
2023-02-03T01:06:48.422Z,100260.59
2023-02-03T01:09:15.247Z,100273.34
2023-02-03T01:11:42.236Z,100277.59
2023-02-03T01:14:09.060Z,100282.78
2023-02-03T01:16:38.162Z,100277.59
2023-02-03T01:19:05.884Z,100268.28
2023-02-03T01:21:32.927Z,100263.13
2023-02-03T01:24:00.885Z,100238.22
2023-02-03T01:26:28.373Z,100210.69
2023-02-03T01:28:59.407Z,100214.19
2023-02-03T01:31:35.330Z,100223.59
2023-02-03T01:34:03.558Z,100230.50
2023-02-03T01:36:32.453Z,100237.38
2023-02-03T01:38:59.291Z,100247.72
2023-02-03T01:41:30.370Z,100239.09
2023-02-03T01:43:59.723Z,100234.00
2023-02-03T01:46:49.832Z,100232.31
2023-02-03T01:49:26.894Z,100208.41
2023-02-03T01:51:54.480Z,100231.22
2023-02-03T01:54:27.477Z,100227.84
2023-02-03T01:57:00.816Z,100225.34
2023-02-03T01:59:30.149Z,100227.06
2023-02-03T02:01:58.639Z,100232.16
2023-02-03T02:04:40.273Z,100212.53
2023-02-03T02:07:08.322Z,100232.84
2023-02-03T02:09:35.354Z,100223.44
2023-02-03T02:12:02.188Z,100216.47
2023-02-03T02:14:29.209Z,100198.50
2023-02-03T02:17:26.813Z,100190.75
2023-02-03T02:20:20.770Z,100199.19
2023-02-03T02:23:22.006Z,100183.03
2023-02-03T02:26:25.815Z,100155.38
2023-02-03T02:29:44.162Z,100132.31
2023-02-03T02:32:31.845Z,100141.75
2023-02-03T02:35:19.992Z,100119.06
2023-02-03T02:38:19.156Z,100159.13
2023-02-03T02:40:51.702Z,100159.09
2023-02-03T02:43:30.177Z,100128.28
2023-02-03T02:46:12.724Z,100118.81
2023-02-03T02:48:59.004Z,100121.50
2023-02-03T02:51:28.241Z,100100.97
2023-02-03T02:53:59.935Z,100097.63
2023-02-03T02:56:30.775Z,100123.41
2023-02-03T02:59:00.739Z,100174.91
2023-02-03T03:01:27.775Z,100163.03
2023-02-03T03:03:54.677Z,100180.22
2023-02-03T03:06:36.329Z,100186.13
2023-02-03T03:09:15.687Z,100180.88
2023-02-03T03:11:59.003Z,100157.84
2023-02-03T03:14:31.114Z,100155.13
2023-02-03T03:17:04.834Z,100151.63
2023-02-03T03:19:49.166Z,100159.34
2023-02-03T03:22:17.783Z,100149.97
2023-02-03T03:25:03.674Z,100155.13
2023-02-03T03:27:39.995Z,100153.47
2023-02-03T03:30:22.440Z,100152.69
2023-02-03T03:32:50.564Z,100155.28
2023-02-03T03:35:17.885Z,100159.66
2023-02-03T03:37:58.797Z,100166.34
2023-02-03T03:40:42.859Z,100161.44
2023-02-03T03:43:24.272Z,100181.88
2023-02-03T03:46:25.800Z,100181.06
2023-02-03T03:49:07.743Z,100165.66
2023-02-03T03:51:43.921Z,100189.59
2023-02-03T03:54:16.277Z,100201.53
2023-02-03T03:57:03.957Z,100203.19
2023-02-03T03:59:34.847Z,100214.38
2023-02-03T04:02:04.543Z,100217.63
2023-02-03T04:04:34.590Z,100227.94
2023-02-03T04:07:01.574Z,100223.59
2023-02-03T04:09:28.434Z,100239.16
2023-02-03T04:12:06.000Z,100235.63
2023-02-03T04:14:38.863Z,100225.41
2023-02-03T04:17:06.156Z,100232.41
2023-02-03T04:19:32.989Z,100215.25
2023-02-03T04:21:59.831Z,100214.38
2023-02-03T04:24:26.678Z,100206.63
2023-02-03T04:26:53.521Z,100201.47
2023-02-03T04:29:20.337Z,100176.09
2023-02-03T04:31:47.299Z,100209.31
2023-02-03T04:34:14.136Z,100185.31
2023-02-03T04:36:40.997Z,100192.19
2023-02-03T04:39:07.823Z,100192.16
2023-02-03T04:41:34.633Z,100191.28
2023-02-03T04:44:01.426Z,100181.09
2023-02-03T04:46:28.281Z,100187.09
2023-02-03T04:48:55.102Z,100183.69
2023-02-03T04:51:21.977Z,100188.78
2023-02-03T04:53:48.909Z,100148.75
2023-02-03T04:56:16.546Z,100193.94
2023-02-03T04:58:43.406Z,100179.44
2023-02-03T05:01:10.688Z,100199.72
2023-02-03T05:03:37.717Z,100197.25
2023-02-03T05:06:05.483Z,100175.91
2023-02-03T05:08:32.556Z,100177.56
2023-02-03T05:11:01.897Z,100179.34
2023-02-03T05:13:29.267Z,100171.72
2023-02-03T05:15:56.095Z,100171.72
2023-02-03T05:18:22.952Z,100150.53
2023-02-03T05:20:49.797Z,100188.06
2023-02-03T05:23:16.649Z,100185.63
2023-02-03T05:25:44.998Z,100166.94
2023-02-03T05:28:12.122Z,100183.19
2023-02-03T05:30:39.071Z,100187.41
2023-02-03T05:33:05.956Z,100175.41
2023-02-03T05:35:32.824Z,100189.97
2023-02-03T05:37:59.626Z,100175.53
2023-02-03T05:40:45.501Z,100198.53
2023-02-03T05:43:12.422Z,100198.78
2023-02-03T05:45:39.421Z,100214.84
2023-02-03T05:48:07.451Z,100220.84
2023-02-03T05:50:38.365Z,100207.13
2023-02-03T05:53:06.802Z,100206.47
2023-02-03T05:55:34.553Z,100186.88
2023-02-03T05:58:01.482Z,100202.97
2023-02-03T06:00:29.487Z,100185.06
2023-02-03T06:03:04.498Z,100171.31
2023-02-03T06:05:34.534Z,100135.53
2023-02-03T06:08:01.859Z,100162.00
2023-02-03T06:10:28.923Z,100183.22
2023-02-03T06:12:55.956Z,100189.22
2023-02-03T06:15:22.872Z,100199.47
2023-02-03T06:17:49.865Z,100191.75
2023-02-03T06:20:20.350Z,100167.00
2023-02-03T06:22:47.225Z,100172.13
2023-02-03T06:25:14.347Z,100179.72
2023-02-03T06:27:42.186Z,100166.88
2023-02-03T06:30:11.279Z,100172.91
2023-02-03T06:32:38.359Z,100178.00
2023-02-03T06:35:05.408Z,100188.34
2023-02-03T06:37:32.489Z,100170.34
2023-02-03T06:39:59.380Z,100174.66
2023-02-03T06:42:26.241Z,100169.47
2023-02-03T06:44:53.597Z,100178.09
2023-02-03T06:47:20.637Z,100166.94
2023-02-03T06:49:47.506Z,100159.25
2023-02-03T06:52:15.540Z,100169.50
2023-02-03T06:54:42.405Z,100153.03
2023-02-03T06:57:09.444Z,100129.13
2023-02-03T06:59:36.265Z,100133.44
2023-02-03T07:02:03.422Z,100142.00
2023-02-03T07:04:30.310Z,100153.97
2023-02-03T07:06:57.775Z,100150.53
2023-02-03T07:09:24.834Z,100143.75
2023-02-03T07:11:51.626Z,100152.25
2023-02-03T07:14:18.551Z,100158.16
2023-02-03T07:16:45.380Z,100164.06
2023-02-03T07:19:12.228Z,100165.03
2023-02-03T07:21:39.134Z,100168.44
2023-02-03T07:24:06.159Z,100148.72
2023-02-03T07:26:33.057Z,100150.41
2023-02-03T07:29:00.761Z,100145.28
2023-02-03T07:31:28.113Z,100121.47
2023-02-03T07:33:55.118Z,100137.69
2023-02-03T07:36:22.056Z,100140.34
2023-02-03T07:38:48.902Z,100163.41
2023-02-03T07:41:17.961Z,100165.16
2023-02-03T07:43:45.082Z,100174.63
2023-02-03T07:46:12.123Z,100167.69
2023-02-03T07:48:39.274Z,100167.75
2023-02-03T07:51:06.098Z,100181.44
2023-02-03T07:53:33.321Z,100158.50
2023-02-03T07:56:02.015Z,100200.28
2023-02-03T07:58:29.936Z,100199.47
2023-02-03T08:00:57.738Z,100205.53
2023-02-03T08:03:24.709Z,100208.16
2023-02-03T08:05:52.437Z,100189.44
2023-02-03T08:08:19.379Z,100198.88
2023-02-03T08:10:46.275Z,100233.09
2023-02-03T08:13:13.192Z,100226.13
2023-02-03T08:15:39.990Z,100225.16
2023-02-03T08:18:08.821Z,100219.19
2023-02-03T08:20:35.861Z,100235.44
2023-02-03T08:23:02.627Z,100241.41
2023-02-03T08:25:29.421Z,100219.22
2023-02-03T08:27:56.307Z,100217.44
2023-02-03T08:30:23.893Z,100233.69
2023-02-03T08:32:50.879Z,100234.56
2023-02-03T08:35:18.151Z,100195.31
2023-02-03T08:37:45.101Z,100216.66
2023-02-03T08:40:12.306Z,100209.75
2023-02-03T08:42:39.204Z,100212.28
2023-02-03T08:45:06.689Z,100214.81
2023-02-03T08:47:33.913Z,100200.47
2023-02-03T08:50:00.704Z,100248.25
2023-02-03T08:52:27.681Z,100253.47
2023-02-03T08:54:54.655Z,100237.19
2023-02-03T08:57:21.448Z,100202.16
2023-02-03T08:59:48.877Z,100226.75
2023-02-03T09:02:19.146Z,100220.81
2023-02-03T09:04:47.440Z,100240.44
2023-02-03T09:07:14.646Z,100228.47
2023-02-03T09:09:41.512Z,100239.63
2023-02-03T09:12:09.053Z,100213.91
2023-02-03T09:14:35.943Z,100218.03
2023-02-03T09:17:04.157Z,100221.47
2023-02-03T09:19:32.022Z,100225.81
2023-02-03T09:22:00.139Z,100221.47
2023-02-03T09:24:27.536Z,100164.25
2023-02-03T09:26:55.130Z,100207.72
2023-02-03T09:29:23.144Z,100208.59
2023-02-03T09:31:53.730Z,100201.69
2023-02-03T09:34:21.421Z,100212.88
2023-02-03T09:36:49.101Z,100216.31
2023-02-03T09:39:16.039Z,100230.91
2023-02-03T09:42:19.848Z,100224.88
2023-02-03T09:45:09.675Z,100227.44
2023-02-03T09:47:40.641Z,100223.88
2023-02-03T09:50:27.080Z,100230.59
2023-02-03T09:52:55.849Z,100234.91
2023-02-03T09:55:42.906Z,100210.09
2023-02-03T09:58:20.997Z,100224.75
2023-02-03T10:01:05.558Z,100210.09
2023-02-03T10:04:05.495Z,100219.50
2023-02-03T10:06:38.562Z,100196.56
2023-02-03T10:09:29.538Z,100204.09
2023-02-03T10:12:33.552Z,100205.78
2023-02-03T10:15:16.831Z,100195.34
2023-02-03T10:17:56.426Z,100186.09
2023-02-03T10:20:41.173Z,100227.13
2023-02-03T10:23:25.396Z,100212.63
2023-02-03T10:25:59.000Z,100218.56
2023-02-03T10:28:31.624Z,100213.56
2023-02-03T10:31:09.869Z,100219.34
2023-02-03T10:33:36.713Z,100220.13
2023-02-03T10:36:24.051Z,100216.75
2023-02-03T10:39:20.063Z,100220.22
2023-02-03T10:41:46.916Z,100235.59
2023-02-03T10:44:15.382Z,100233.00
2023-02-03T10:46:44.121Z,100229.47
2023-02-03T10:49:15.636Z,100233.69
2023-02-03T10:51:51.744Z,100209.69
2023-02-03T10:54:32.970Z,100202.66
2023-02-03T10:57:13.006Z,100191.63
2023-02-03T10:59:45.059Z,100191.75
2023-02-03T11:02:29.450Z,100185.44
2023-02-03T11:05:21.039Z,100170.09
2023-02-03T11:07:48.551Z,100176.84
2023-02-03T11:10:38.875Z,100177.69
2023-02-03T11:13:25.638Z,100175.94
2023-02-03T11:16:17.344Z,100157.97
2023-02-03T11:19:11.375Z,100177.63
2023-02-03T11:21:38.168Z,100168.25
2023-02-03T11:24:18.545Z,100160.47
2023-02-03T11:27:04.740Z,100163.00
2023-02-03T11:29:34.653Z,100166.38
2023-02-03T11:32:39.312Z,100159.53
2023-02-03T11:35:25.076Z,100167.25
2023-02-03T11:37:57.713Z,100150.75
2023-02-03T11:40:34.436Z,100135.50
2023-02-03T11:43:25.181Z,100164.53
2023-02-03T11:45:54.314Z,100161.84
2023-02-03T11:48:29.866Z,100160.19
2023-02-03T11:51:02.376Z,100151.59
2023-02-03T11:53:56.665Z,100140.50
2023-02-03T11:57:01.769Z,100148.16
2023-02-03T12:00:01.054Z,100131.84
2023-02-03T12:02:56.170Z,100126.78
2023-02-03T12:06:03.591Z,100125.09
2023-02-03T12:09:20.691Z,100125.03
2023-02-03T12:12:33.939Z,100123.38
2023-02-03T12:15:55.205Z,100120.66
2023-02-03T12:18:56.895Z,100116.34
2023-02-03T12:21:50.480Z,100112.81
2023-02-03T12:24:44.464Z,100114.63
2023-02-03T12:27:38.188Z,100116.22
2023-02-03T12:30:22.973Z,100111.97
2023-02-03T12:33:08.778Z,100105.94
2023-02-03T12:35:41.607Z,100108.50
2023-02-03T12:38:38.272Z,100107.53
2023-02-03T12:41:14.516Z,100105.84
2023-02-03T12:43:49.720Z,100069.00
2023-02-03T12:46:40.722Z,100080.69
2023-02-03T12:49:39.870Z,100043.22
2023-02-03T12:52:23.227Z,100057.44
2023-02-03T12:55:15.519Z,100057.34
2023-02-03T12:57:54.760Z,100052.06
2023-02-03T13:00:37.260Z,100045.19
2023-02-03T13:03:32.830Z,100047.00
2023-02-03T13:06:14.741Z,100030.59
2023-02-03T13:09:01.710Z,100034.06
2023-02-03T13:11:41.888Z,100048.59
2023-02-03T13:14:32.657Z,100040.94
2023-02-03T13:17:13.554Z,100022.94
2023-02-03T13:19:52.466Z,100001.69
2023-02-03T13:22:23.797Z,100022.88
2023-02-03T13:25:07.743Z,100019.25
2023-02-03T13:27:50.344Z,100025.25
2023-02-03T13:31:13.234Z,100028.63
2023-02-03T13:33:58.274Z,100020.09
2023-02-03T13:36:50.116Z,100005.56
2023-02-03T13:39:40.387Z,100005.44
2023-02-03T13:42:29.231Z,99984.78
2023-02-03T13:45:26.408Z,99991.78
2023-02-03T13:47:59.587Z,100004.56
2023-02-03T13:50:31.442Z,99989.13
2023-02-03T13:53:18.979Z,99938.84
2023-02-03T13:55:58.124Z,99986.34
2023-02-03T13:58:27.738Z,99979.56
2023-02-03T14:00:56.306Z,99988.19
2023-02-03T14:03:26.072Z,99996.59
2023-02-03T14:05:56.176Z,100007.91
2023-02-03T14:08:26.063Z,100011.22
2023-02-03T14:11:33.640Z,100007.03
2023-02-03T14:14:20.729Z,100002.72
2023-02-03T14:16:55.162Z,100002.69
2023-02-03T14:19:22.035Z,100006.94
2023-02-03T14:21:52.597Z,100017.13
2023-02-03T14:24:20.772Z,100017.13
2023-02-03T14:26:52.104Z,100023.91
2023-02-03T14:29:36.531Z,100027.34
2023-02-03T14:32:12.714Z,100018.13
2023-02-03T14:34:57.741Z,100014.69
2023-02-03T14:37:32.041Z,100002.72
2023-02-03T14:40:22.494Z,100010.25
2023-02-03T14:43:27.208Z,100010.97
2023-02-03T14:46:36.276Z,100005.03
2023-02-03T14:50:05.935Z,100006.72
2023-02-03T14:53:06.636Z,100025.63
2023-02-03T14:56:11.409Z,100009.31
2023-02-03T14:58:54.092Z,100000.69
2023-02-03T15:01:47.158Z,100011.91
2023-02-03T15:04:13.868Z,100023.72
2023-02-03T15:06:50.409Z,100015.84
2023-02-03T15:09:45.909Z,100005.03
2023-02-03T15:12:26.683Z,99992.34
2023-02-03T15:14:54.147Z,100025.63
2023-02-03T15:17:27.122Z,100006.69
2023-02-03T15:19:54.581Z,100001.56
2023-02-03T15:22:30.579Z,99982.56
2023-02-03T15:25:04.390Z,99990.44
2023-02-03T15:27:32.930Z,99972.63
2023-02-03T15:30:15.726Z,99978.72
2023-02-03T15:32:57.918Z,99999.09
2023-02-03T15:35:27.248Z,100006.84
2023-02-03T15:38:03.442Z,100007.81
2023-02-03T15:40:47.158Z,99996.88
2023-02-03T15:43:30.092Z,100020.00
2023-02-03T15:46:07.389Z,100038.81
2023-02-03T15:48:54.432Z,100046.53
2023-02-03T15:51:43.992Z,100041.22
2023-02-03T15:54:53.381Z,100063.69
2023-02-03T15:57:28.575Z,100046.78
2023-02-03T16:00:20.776Z,100005.00
2023-02-03T16:02:47.756Z,100062.91
2023-02-03T16:05:28.187Z,100080.22
2023-02-03T16:07:55.474Z,100078.66
2023-02-03T16:10:32.429Z,100068.31
2023-02-03T16:13:24.034Z,100064.81
2023-02-03T16:16:18.612Z,100077.72
2023-02-03T16:19:01.632Z,100086.22
2023-02-03T16:21:54.600Z,100077.56
2023-02-03T16:24:42.454Z,100068.91
2023-02-03T16:27:22.309Z,100069.00
2023-02-03T16:30:07.425Z,100070.69
2023-02-03T16:32:52.882Z,100075.91
2023-02-03T16:35:38.340Z,100077.59
2023-02-03T16:38:26.969Z,100069.97
2023-02-03T16:41:12.416Z,100059.69
2023-02-03T16:43:57.948Z,100063.84
2023-02-03T16:46:43.424Z,100071.69
2023-02-03T16:49:29.043Z,100074.91
2023-02-03T16:51:56.139Z,100078.38
2023-02-03T16:54:22.975Z,100074.13
2023-02-03T16:56:51.395Z,100075.84
2023-02-03T16:59:18.248Z,100075.84
2023-02-03T17:01:45.106Z,100059.59
2023-02-03T17:04:12.322Z,100080.94
2023-02-03T17:06:40.246Z,100069.09
2023-02-03T17:09:07.852Z,100075.81
2023-02-03T17:11:34.690Z,100074.19
2023-02-03T17:14:01.612Z,100040.34
2023-02-03T17:16:28.515Z,100092.28
2023-02-03T17:18:55.591Z,100096.56
2023-02-03T17:21:26.081Z,100095.66
2023-02-03T17:23:53.093Z,100091.47
2023-02-03T17:26:20.029Z,100090.53
2023-02-03T17:28:47.139Z,100089.66
2023-02-03T17:31:20.310Z,100087.91
2023-02-03T17:33:51.813Z,100081.91
2023-02-03T17:36:21.703Z,100081.94
2023-02-03T17:55:25.605Z,100103.53
2023-02-03T17:57:52.526Z,100093.19
2023-02-03T18:00:19.635Z,100102.63
2023-02-03T18:02:50.916Z,100104.25
2023-02-03T18:05:18.755Z,100113.78
2023-02-03T18:07:45.683Z,100109.41
2023-02-03T18:10:12.511Z,100105.13
2023-02-03T18:12:39.437Z,100112.88
2023-02-03T18:15:06.644Z,100114.56
2023-02-03T18:17:33.608Z,100102.56
2023-02-03T18:20:01.274Z,100114.59
2023-02-03T18:22:28.274Z,100085.81
2023-02-03T18:24:55.590Z,100094.31
2023-02-03T18:27:22.467Z,100103.59
2023-02-03T18:29:49.315Z,100105.03
2023-02-03T18:32:16.618Z,100105.91
2023-02-03T18:34:43.809Z,100106.72
2023-02-03T18:37:11.329Z,100111.22
2023-02-03T18:39:38.212Z,100103.53
2023-02-03T18:42:07.104Z,100100.06
2023-02-03T18:44:34.035Z,100094.03
2023-02-03T18:47:07.080Z,100093.16
2023-02-03T18:49:37.746Z,100098.50
2023-02-03T18:52:05.382Z,100102.06
2023-02-03T18:54:32.578Z,100077.53
2023-02-03T18:56:59.499Z,100107.22
2023-02-03T18:59:26.443Z,100114.94
2023-02-03T19:01:53.547Z,100119.31
2023-02-03T19:04:20.638Z,100120.81
2023-02-03T19:06:47.687Z,100110.78
2023-02-03T19:09:17.764Z,100114.28
2023-02-03T19:11:45.138Z,100093.94
2023-02-03T19:14:13.776Z,100099.56
2023-02-03T19:16:40.675Z,100104.78
2023-02-03T19:19:08.819Z,100112.59
2023-02-03T19:21:35.806Z,100109.28
2023-02-03T19:24:02.593Z,100116.13
2023-02-03T19:26:29.499Z,100128.16
2023-02-03T19:28:56.375Z,100120.34
2023-02-03T19:31:23.438Z,100100.72
2023-02-03T19:33:50.515Z,100111.03
2023-02-03T19:36:17.412Z,100116.03
2023-02-03T19:38:44.294Z,100129.75
2023-02-03T19:41:11.758Z,100110.19
2023-02-03T19:43:40.107Z,100122.25
2023-02-03T19:46:08.283Z,100141.97
2023-02-03T19:48:36.346Z,100134.38
2023-02-03T19:51:03.218Z,100143.75
2023-02-03T19:53:30.148Z,100149.75
2023-02-03T19:55:57.296Z,100145.44
2023-02-03T19:58:24.168Z,100149.69
2023-02-03T20:00:51.520Z,100160.84
2023-02-03T20:03:19.708Z,100152.06
2023-02-03T20:05:46.938Z,100143.69
2023-02-03T20:08:14.892Z,100156.53
2023-02-03T20:10:44.684Z,100145.34
2023-02-03T20:13:15.727Z,100159.00
2023-02-03T20:15:42.727Z,100147.13
2023-02-03T20:18:09.662Z,100139.31
2023-02-03T20:20:36.550Z,100132.31
2023-02-03T20:23:03.848Z,100141.88
2023-02-03T20:25:30.667Z,100111.38
2023-02-03T20:27:59.496Z,100134.25
2023-02-03T20:30:26.423Z,100115.72
2023-02-03T20:32:54.658Z,100151.41
2023-02-03T20:35:23.672Z,100139.38
2023-02-03T20:37:50.959Z,100140.28
2023-02-03T20:40:19.217Z,100143.69
2023-02-03T20:42:47.350Z,100148.84
2023-02-03T20:45:16.965Z,100149.69
2023-02-03T20:47:44.471Z,100152.19
2023-02-03T20:50:19.515Z,100135.06
2023-02-03T20:52:47.869Z,100140.16
2023-02-03T20:55:21.235Z,100128.28
2023-02-03T20:57:51.361Z,100145.31
2023-02-03T21:00:25.678Z,100150.38
2023-02-03T21:03:31.257Z,100141.72
2023-02-03T21:05:58.276Z,100147.72
2023-02-03T21:08:27.390Z,100144.34
2023-02-03T21:10:54.771Z,100130.66
2023-02-03T21:13:30.108Z,100144.97
2023-02-03T21:15:59.978Z,100150.06
2023-02-03T21:18:37.646Z,100132.84
2023-02-03T21:21:09.092Z,100144.88
2023-02-03T21:23:41.521Z,100144.91
2023-02-03T21:26:28.003Z,100134.53
2023-02-03T21:28:57.735Z,100149.88
2023-02-03T21:31:32.895Z,100137.06
2023-02-03T21:34:26.012Z,100136.97
2023-02-03T21:36:52.901Z,100139.41
2023-02-03T21:39:32.094Z,100126.47
2023-02-03T21:42:40.795Z,100145.41
2023-02-03T21:45:22.383Z,100149.66
2023-02-03T21:47:51.916Z,100137.66
2023-02-03T21:50:41.206Z,100112.13
2023-02-03T21:53:07.901Z,100139.28
2023-02-03T21:55:40.238Z,100140.06
2023-02-03T21:58:30.628Z,100148.56
2023-02-03T22:01:00.571Z,100132.25
2023-02-03T22:03:36.539Z,100142.50
2023-02-03T22:06:09.203Z,100139.81
2023-02-03T22:08:56.451Z,100117.81
2023-02-03T22:11:26.798Z,100147.53
2023-02-03T22:13:54.087Z,100151.00
2023-02-03T22:16:21.401Z,100149.28
2023-02-03T22:18:49.397Z,100155.25
2023-02-03T22:21:17.576Z,100139.03
2023-02-03T22:23:44.757Z,100140.66
2023-02-03T22:26:13.211Z,100154.34
2023-02-03T22:28:40.951Z,100144.91
2023-02-03T22:31:09.253Z,100149.00
2023-02-03T22:33:36.410Z,100141.25
2023-02-03T22:36:06.430Z,100126.72
2023-02-03T22:38:38.065Z,100151.44
2023-02-03T22:41:05.666Z,100147.13
2023-02-03T22:43:32.818Z,100150.56
2023-02-03T22:46:01.751Z,100160.97
2023-02-03T22:48:29.299Z,100179.84
2023-02-03T22:50:58.174Z,100167.66
2023-02-03T22:53:28.663Z,100165.94
2023-02-03T22:55:55.563Z,100175.50
2023-02-03T22:58:22.556Z,100170.25
2023-02-03T23:00:49.492Z,100176.25
2023-02-03T23:03:16.606Z,100181.50
2023-02-03T23:05:43.653Z,100175.34
2023-02-03T23:08:10.532Z,100183.84
2023-02-03T23:10:37.438Z,100189.13
2023-02-03T23:13:04.447Z,100188.28
2023-02-03T23:15:31.366Z,100184.81
2023-02-03T23:17:58.516Z,100183.13
2023-02-03T23:20:25.473Z,100184.72
2023-02-03T23:22:52.432Z,100171.94
2023-02-03T23:25:19.242Z,100187.25
2023-02-03T23:27:46.517Z,100179.47
2023-02-03T23:30:14.919Z,100175.84
2023-02-03T23:32:41.824Z,100163.81
2023-02-03T23:35:27.905Z,100138.31
2023-02-03T23:37:54.826Z,100175.06
2023-02-03T23:40:22.085Z,100177.63
2023-02-03T23:42:49.050Z,100182.81
2023-02-03T23:45:16.338Z,100170.91
2023-02-03T23:47:44.791Z,100175.84
2023-02-03T23:50:15.305Z,100169.19
2023-02-03T23:52:42.369Z,100175.06
2023-02-03T23:55:16.274Z,100183.81
2023-02-03T23:57:43.453Z,100177.75
